createdAt,value
2022-08-07T00:00:23.339Z,80.42
2022-08-07T00:02:51.250Z,80.39
2022-08-07T00:05:21.069Z,80.37
2022-08-07T00:08:00.060Z,80.99
2022-08-07T00:10:30.955Z,80.92
2022-08-07T00:13:03.220Z,81.48
2022-08-07T00:15:46.192Z,81.70
2022-08-07T00:18:19.429Z,82.27
2022-08-07T00:20:49.731Z,82.89
2022-08-07T00:23:17.364Z,82.60
2022-08-07T00:25:51.805Z,83.00
2022-08-07T00:28:25.893Z,83.56
2022-08-07T00:31:05.734Z,83.96
2022-08-07T00:33:33.958Z,83.43
2022-08-07T00:36:01.205Z,83.60
2022-08-07T00:38:31.265Z,83.87
2022-08-07T00:40:59.691Z,83.21
2022-08-07T00:44:00.755Z,84.38
2022-08-07T00:46:14.258Z,83.90
2022-08-07T00:48:42.047Z,84.58
2022-08-07T00:51:09.621Z,84.71
2022-08-07T00:53:38.857Z,85.68
2022-08-07T00:56:17.218Z,86.04
2022-08-07T00:58:47.134Z,85.71
2022-08-07T01:01:17.891Z,85.92
2022-08-07T01:03:56.150Z,84.72
2022-08-07T01:06:27.602Z,85.75
2022-08-07T01:08:55.551Z,85.39
2022-08-07T01:12:04.462Z,85.69
2022-08-07T01:14:10.379Z,85.52
2022-08-07T01:16:37.785Z,86.52
2022-08-07T01:19:18.366Z,86.06
2022-08-07T01:21:53.418Z,86.57
2022-08-07T01:24:27.473Z,86.56
2022-08-07T01:26:54.563Z,86.79
2022-08-07T01:29:24.181Z,86.79
2022-08-07T01:31:55.301Z,87.37
2022-08-07T01:34:31.154Z,87.66
2022-08-07T01:37:00.730Z,87.73
2022-08-07T01:39:40.591Z,86.83
2022-08-07T01:42:39.284Z,87.13
2022-08-07T01:45:15.777Z,88.01
2022-08-07T01:48:29.726Z,87.21
2022-08-07T01:50:37.734Z,88.07
2022-08-07T01:53:09.586Z,88.36
2022-08-07T01:55:52.305Z,88.40
2022-08-07T01:58:27.538Z,88.54
2022-08-07T02:01:10.117Z,88.89
2022-08-07T02:03:58.071Z,88.93
2022-08-07T02:06:31.326Z,89.40
2022-08-07T02:09:04.786Z,89.07
2022-08-07T02:12:03.854Z,89.59
2022-08-07T02:14:36.381Z,89.57
2022-08-07T02:17:27.404Z,89.59
2022-08-07T02:20:09.289Z,89.83
2022-08-07T02:22:43.852Z,89.38
2022-08-07T02:25:13.729Z,89.10
2022-08-07T02:27:52.194Z,89.35
2022-08-07T02:30:21.214Z,89.54
2022-08-07T02:33:00.565Z,89.69
2022-08-07T02:36:26.896Z,90.63
2022-08-07T02:38:31.865Z,89.95
2022-08-07T02:41:05.120Z,90.17
2022-08-07T02:43:39.455Z,90.47
2022-08-07T02:46:08.497Z,90.06
2022-08-07T02:48:37.750Z,90.29
2022-08-07T02:51:42.009Z,90.81
2022-08-07T02:54:06.818Z,91.42
2022-08-07T02:56:34.422Z,91.22
2022-08-07T02:59:05.828Z,91.14
2022-08-07T03:01:35.751Z,90.62
2022-08-07T03:04:12.647Z,90.95
2022-08-07T03:06:46.170Z,91.18
2022-08-07T03:09:43.928Z,91.44
2022-08-07T03:12:08.120Z,91.31
2022-08-07T03:14:52.127Z,91.05
2022-08-07T03:17:20.100Z,90.30
2022-08-07T03:19:52.872Z,89.77
2022-08-07T03:22:29.622Z,90.78
2022-08-07T03:25:00.685Z,91.43
2022-08-07T03:27:42.179Z,91.69
2022-08-07T03:30:25.733Z,91.17
2022-08-07T03:32:59.154Z,91.56
2022-08-07T03:35:43.907Z,92.18
2022-08-07T03:38:20.909Z,92.66
2022-08-07T03:40:53.853Z,92.89
2022-08-07T03:43:26.799Z,92.63
2022-08-07T03:46:01.477Z,92.26
2022-08-07T03:48:31.709Z,91.71
2022-08-07T03:50:59.909Z,92.50
2022-08-07T03:54:32.767Z,92.66
2022-08-07T03:56:32.560Z,91.86
2022-08-07T03:59:09.749Z,92.78
2022-08-07T04:01:46.321Z,92.93
2022-08-07T04:04:17.884Z,93.09
2022-08-07T04:06:50.913Z,93.25
2022-08-07T04:09:23.331Z,92.85
2022-08-07T04:12:21.428Z,93.26
2022-08-07T04:14:45.970Z,92.85
2022-08-07T04:17:20.499Z,93.30
2022-08-07T04:19:52.572Z,93.59
2022-08-07T04:22:28.824Z,94.26
2022-08-07T04:24:58.131Z,93.90
2022-08-07T04:27:35.438Z,94.00
2022-08-07T04:30:11.772Z,93.86
2022-08-07T04:33:07.433Z,93.65
2022-08-07T04:35:39.141Z,93.81
2022-08-07T04:38:13.089Z,94.24
2022-08-07T04:40:52.567Z,94.42
2022-08-07T04:44:12.389Z,94.11
2022-08-07T04:47:04.545Z,94.70
2022-08-07T04:49:58.079Z,94.51
2022-08-07T04:52:57.371Z,94.82
2022-08-07T04:58:10.640Z,94.96
2022-08-07T04:59:16.935Z,95.40
2022-08-07T05:01:46.855Z,96.22
2022-08-07T05:04:50.242Z,96.51
2022-08-07T05:07:44.189Z,96.59
2022-08-07T05:10:24.735Z,97.28
2022-08-07T05:14:56.349Z,97.49
2022-08-07T05:15:59.935Z,97.71
2022-08-07T05:18:36.609Z,97.71
2022-08-07T05:21:09.693Z,98.08
2022-08-07T05:23:47.942Z,98.25
2022-08-07T05:26:25.972Z,98.21
2022-08-07T05:29:04.104Z,99.18
2022-08-07T05:31:37.773Z,99.35
2022-08-07T05:34:12.206Z,99.67
2022-08-07T05:36:48.992Z,99.63
2022-08-07T05:40:13.567Z,100.00
2022-08-07T05:42:14.488Z,100.00
2022-08-07T05:44:52.788Z,100.00
2022-08-07T05:48:02.094Z,100.00
2022-08-07T05:50:19.373Z,100.00
2022-08-07T05:52:46.527Z,100.00
2022-08-07T05:55:14.890Z,100.00
2022-08-07T05:57:46.455Z,100.00
2022-08-07T06:00:17.709Z,100.00
2022-08-07T06:02:55.932Z,100.00
2022-08-07T06:05:28.417Z,100.00
2022-08-07T06:08:09.062Z,100.00
2022-08-07T06:10:54.702Z,100.00
2022-08-07T06:14:10.489Z,99.64
2022-08-07T06:16:13.356Z,98.46
2022-08-07T06:18:51.597Z,98.23
2022-08-07T06:22:14.940Z,98.30
2022-08-07T06:24:46.283Z,97.27
2022-08-07T06:26:58.906Z,96.04
2022-08-07T06:29:30.557Z,94.76
2022-08-07T06:31:57.227Z,93.87
2022-08-07T06:34:25.539Z,92.97
2022-08-07T06:36:56.814Z,91.95
2022-08-07T06:40:16.977Z,90.91
2022-08-07T06:42:34.783Z,87.43
2022-08-07T06:45:23.570Z,86.69
2022-08-07T06:47:58.601Z,86.88
2022-08-07T06:50:33.490Z,86.29
2022-08-07T06:53:04.597Z,84.25
2022-08-07T06:55:47.895Z,83.84
2022-08-07T06:58:27.461Z,82.72
2022-08-07T07:01:02.955Z,82.37
2022-08-07T07:03:48.104Z,80.59
2022-08-07T07:06:23.835Z,78.92
2022-08-07T07:08:53.740Z,78.83
2022-08-07T07:12:10.703Z,78.89
2022-08-07T07:14:10.247Z,76.53
2022-08-07T07:16:49.740Z,74.53
2022-08-07T07:19:56.991Z,73.22
2022-08-07T07:22:35.765Z,71.27
2022-08-07T07:25:13.863Z,70.95
2022-08-07T07:28:02.340Z,68.08
2022-08-07T07:30:38.486Z,68.39
2022-08-07T07:33:08.879Z,65.95
2022-08-07T07:35:43.941Z,66.68
2022-08-07T07:38:30.782Z,63.38
2022-08-07T07:41:02.755Z,63.28
2022-08-07T07:43:48.022Z,63.09
2022-08-07T07:46:38.504Z,60.67
2022-08-07T07:50:35.972Z,60.42
2022-08-07T07:52:01.253Z,59.50
2022-08-07T07:54:31.946Z,58.49
2022-08-07T07:57:01.615Z,56.33
2022-08-07T07:59:52.993Z,56.35
2022-08-07T08:02:22.546Z,53.98
2022-08-07T08:05:02.793Z,54.57
2022-08-07T08:07:35.975Z,55.08
2022-08-07T08:10:10.553Z,51.07
2022-08-07T08:12:52.403Z,51.92
2022-08-07T08:15:29.413Z,50.28
2022-08-07T08:18:17.446Z,49.59
2022-08-07T08:20:48.045Z,52.23
2022-08-07T08:23:38.019Z,48.88
2022-08-07T08:26:26.529Z,48.54
2022-08-07T08:28:55.617Z,48.33
2022-08-07T08:31:58.452Z,45.44
2022-08-07T08:34:26.677Z,46.28
2022-08-07T08:36:58.346Z,47.01
2022-08-07T08:39:39.523Z,46.92
2022-08-07T08:42:40.832Z,43.92
2022-08-07T08:45:41.908Z,44.32
2022-08-07T08:48:28.448Z,45.24
2022-08-07T08:52:13.459Z,44.18
2022-08-07T08:54:26.172Z,42.56
2022-08-07T08:56:54.639Z,42.59
2022-08-07T08:59:42.086Z,42.26
2022-08-07T09:02:35.254Z,43.75
2022-08-07T09:05:36.942Z,42.04
2022-08-07T09:08:24.387Z,42.59
2022-08-07T09:11:24.771Z,42.89
2022-08-07T09:14:17.841Z,42.54
2022-08-07T09:16:47.517Z,43.40
2022-08-07T09:19:51.219Z,41.32
2022-08-07T09:24:32.666Z,41.00
2022-08-07T09:25:35.313Z,41.27
2022-08-07T09:29:22.276Z,41.07
2022-08-07T09:31:38.250Z,41.32
2022-08-07T09:34:17.988Z,41.74
2022-08-07T09:37:11.553Z,42.01
2022-08-07T09:39:54.696Z,40.16
2022-08-07T09:42:41.048Z,40.17
2022-08-07T09:47:25.246Z,39.95
2022-08-07T09:48:56.162Z,40.58
2022-08-07T09:52:10.451Z,39.16
2022-08-07T09:54:57.898Z,40.24
2022-08-07T09:58:02.484Z,39.67
2022-08-07T10:00:51.239Z,37.86
2022-08-07T10:04:05.050Z,37.96
2022-08-07T10:06:55.512Z,38.15
2022-08-07T10:10:00.239Z,37.50
2022-08-07T10:12:39.726Z,37.37
2022-08-07T10:15:24.588Z,38.32
2022-08-07T10:18:26.288Z,35.70
2022-08-07T10:21:19.878Z,37.68
2022-08-07T10:24:27.990Z,37.50
2022-08-07T10:27:20.362Z,37.70
2022-08-07T10:30:12.269Z,35.88
2022-08-07T10:32:59.741Z,36.03
2022-08-07T10:35:56.601Z,34.61
2022-08-07T10:38:49.055Z,35.50
2022-08-07T10:41:54.686Z,35.68
2022-08-07T10:44:28.451Z,35.01
2022-08-07T10:47:16.669Z,35.27
2022-08-07T10:50:20.288Z,35.52
2022-08-07T10:53:21.498Z,35.54
2022-08-07T10:56:20.872Z,34.88
2022-08-07T10:59:30.216Z,34.52
2022-08-07T11:02:32.795Z,34.72
2022-08-07T11:05:12.837Z,34.14
2022-08-07T11:07:59.208Z,34.36
2022-08-07T11:11:00.016Z,34.55
2022-08-07T11:14:43.555Z,34.32
2022-08-07T11:16:38.849Z,34.57
2022-08-07T11:19:13.938Z,34.86
2022-08-07T11:22:19.195Z,35.34
2022-08-07T11:25:14.999Z,35.86
2022-08-07T11:28:01.205Z,34.09
2022-08-07T11:30:41.816Z,34.17
2022-08-07T11:33:59.082Z,33.17
2022-08-07T11:36:49.561Z,33.33
2022-08-07T11:39:59.141Z,33.67
2022-08-07T11:43:15.604Z,33.10
2022-08-07T11:46:10.323Z,33.66
2022-08-07T11:49:50.885Z,33.28
2022-08-07T11:52:35.656Z,35.00
2022-08-07T11:56:25.212Z,33.55
2022-08-07T11:58:50.037Z,32.94
2022-08-07T12:01:59.230Z,31.82
2022-08-07T12:04:53.794Z,34.24
2022-08-07T12:07:27.927Z,33.80
2022-08-07T12:10:13.847Z,34.24
2022-08-07T12:12:47.861Z,34.66
2022-08-07T12:15:35.627Z,34.21
2022-08-07T12:18:22.020Z,34.07
2022-08-07T12:20:57.416Z,33.52
2022-08-07T12:24:07.345Z,34.80
2022-08-07T12:27:13.206Z,33.46
2022-08-07T12:29:57.174Z,34.27
2022-08-07T12:32:38.633Z,32.77
2022-08-07T12:35:10.108Z,33.91
2022-08-07T12:38:09.293Z,32.90
2022-08-07T12:40:48.820Z,33.14
2022-08-07T12:44:02.511Z,32.20
2022-08-07T12:46:32.351Z,31.88
2022-08-07T12:49:10.115Z,31.52
2022-08-07T12:52:12.327Z,31.52
2022-08-07T12:55:01.540Z,30.82
2022-08-07T12:57:38.946Z,31.78
2022-08-07T13:00:34.693Z,33.44
2022-08-07T13:03:54.745Z,33.03
2022-08-07T13:07:00.394Z,34.38
2022-08-07T13:10:18.882Z,35.25
2022-08-07T13:12:38.697Z,35.78
2022-08-07T13:15:36.885Z,36.02
2022-08-07T13:18:34.145Z,36.07
2022-08-07T13:21:37.304Z,36.86
2022-08-07T13:24:30.696Z,36.57
2022-08-07T13:27:21.184Z,36.84
2022-08-07T13:30:19.544Z,35.47
2022-08-07T13:34:30.162Z,34.92
2022-08-07T13:36:19.142Z,35.84
2022-08-07T13:39:13.020Z,34.99
2022-08-07T13:41:57.162Z,36.77
2022-08-07T13:44:34.651Z,35.22
2022-08-07T13:47:09.232Z,35.00
2022-08-07T13:50:34.377Z,34.60
2022-08-07T13:52:39.527Z,34.46
2022-08-07T13:55:26.411Z,35.30
2022-08-07T13:58:31.682Z,35.81
2022-08-07T14:00:59.825Z,35.88
2022-08-07T14:04:07.006Z,36.04
2022-08-07T14:06:37.058Z,35.78
2022-08-07T14:09:07.516Z,35.77
2022-08-07T14:11:53.717Z,36.41
2022-08-07T14:14:56.316Z,35.50
2022-08-07T14:17:51.505Z,36.94
2022-08-07T14:20:43.383Z,37.20
2022-08-07T14:23:14.436Z,37.33
2022-08-07T14:26:05.698Z,36.68
2022-08-07T14:28:57.662Z,36.60
2022-08-07T14:31:25.405Z,36.46
2022-08-07T14:34:20.351Z,35.74
2022-08-07T14:36:55.867Z,36.02
2022-08-07T14:40:18.192Z,35.31
2022-08-07T14:42:20.228Z,34.03
2022-08-07T14:44:53.550Z,34.55
2022-08-07T14:47:23.197Z,33.03
2022-08-07T14:52:40.745Z,33.58
2022-08-07T14:55:12.179Z,32.84
2022-08-07T14:57:58.456Z,34.57
2022-08-07T15:00:31.579Z,34.22
2022-08-07T15:03:19.609Z,34.60
2022-08-07T15:05:54.289Z,32.99
2022-08-07T15:08:33.785Z,33.78
2022-08-07T15:11:06.143Z,34.21
2022-08-07T15:13:37.853Z,34.29
2022-08-07T15:16:11.471Z,33.01
2022-08-07T15:18:48.599Z,32.53
2022-08-07T15:21:44.174Z,33.67
2022-08-07T15:27:15.401Z,32.78
2022-08-07T15:30:08.903Z,33.36
2022-08-07T15:32:39.570Z,31.96
2022-08-07T15:35:12.282Z,32.14
2022-08-07T15:38:18.212Z,32.85
2022-08-07T15:40:34.585Z,32.21
2022-08-07T15:43:52.927Z,32.18
2022-08-07T15:46:31.804Z,32.39
2022-08-07T15:49:15.255Z,32.23
2022-08-07T15:54:34.236Z,32.33
2022-08-07T15:57:02.784Z,32.56
2022-08-07T15:59:39.722Z,33.30
2022-08-07T16:02:23.507Z,33.48
2022-08-07T16:04:57.627Z,33.22
2022-08-07T16:08:31.646Z,32.87
2022-08-07T16:10:22.806Z,32.94
2022-08-07T16:13:57.824Z,33.65
2022-08-07T16:16:48.250Z,34.30
2022-08-07T16:20:05.705Z,33.95
2022-08-07T16:22:54.434Z,33.67
2022-08-07T16:25:59.560Z,33.93
2022-08-07T16:29:18.898Z,33.98
2022-08-07T16:31:51.956Z,34.33
2022-08-07T16:34:45.359Z,34.08
2022-08-07T16:38:03.601Z,33.65
2022-08-07T16:41:02.275Z,34.02
2022-08-07T16:44:31.812Z,33.83
2022-08-07T16:47:56.959Z,34.06
2022-08-07T16:51:21.035Z,34.54
2022-08-07T16:54:01.270Z,33.93
2022-08-07T16:56:48.871Z,33.56
2022-08-07T16:59:48.984Z,33.56
2022-08-07T17:02:55.364Z,33.29
2022-08-07T17:06:19.789Z,33.72
2022-08-07T17:09:08.714Z,33.75
2022-08-07T17:12:04.999Z,34.08
2022-08-07T17:14:42.684Z,34.86
2022-08-07T17:17:28.118Z,34.50
2022-08-07T17:20:41.898Z,33.70
2022-08-07T17:23:19.243Z,34.27
2022-08-07T17:25:53.567Z,34.64
2022-08-07T17:28:35.193Z,34.81
2022-08-07T17:31:20.905Z,34.72
2022-08-07T17:34:15.570Z,34.89
2022-08-07T17:37:08.843Z,34.41
2022-08-07T17:39:58.892Z,34.49
2022-08-07T17:42:58.431Z,34.96
2022-08-07T17:45:35.006Z,34.76
2022-08-07T17:48:10.264Z,34.85
2022-08-07T17:51:01.549Z,35.33
2022-08-07T17:54:00.374Z,36.15
2022-08-07T17:56:29.806Z,35.83
2022-08-07T17:58:57.062Z,36.51
2022-08-07T18:01:39.181Z,36.33
2022-08-07T18:04:34.441Z,37.40
2022-08-07T18:07:20.351Z,37.28
2022-08-07T18:10:28.590Z,37.43
2022-08-07T18:13:00.410Z,37.19
2022-08-07T18:15:40.204Z,37.59
2022-08-07T18:18:44.694Z,37.37
2022-08-07T18:21:42.332Z,37.59
2022-08-07T18:24:07.294Z,38.08
2022-08-07T18:26:42.396Z,38.23
2022-08-07T18:30:07.918Z,38.43
2022-08-07T18:32:51.420Z,38.69
2022-08-07T18:35:51.754Z,38.78
2022-08-07T18:38:58.724Z,38.98
2022-08-07T18:41:55.249Z,39.10
2022-08-07T18:44:22.317Z,39.14
2022-08-07T18:47:07.722Z,39.20
2022-08-07T18:50:38.449Z,39.44
2022-08-07T18:53:39.731Z,40.29
2022-08-07T18:56:34.922Z,40.57
2022-08-07T18:59:47.754Z,40.75
2022-08-07T19:02:42.151Z,41.04
2022-08-07T19:06:02.837Z,41.16
2022-08-07T19:08:37.813Z,41.84
2022-08-07T19:11:15.480Z,41.91
2022-08-07T19:14:30.048Z,42.10
2022-08-07T19:17:07.859Z,41.97
2022-08-07T19:19:54.609Z,42.04
2022-08-07T19:22:45.038Z,42.35
2022-08-07T19:26:22.026Z,43.00
2022-08-07T19:28:57.107Z,43.41
2022-08-07T19:31:41.881Z,43.63
2022-08-07T19:33:59.522Z,43.94
2022-08-07T19:36:30.420Z,43.97
2022-08-07T19:39:01.623Z,44.70
2022-08-07T19:41:44.623Z,45.17
2022-08-07T19:44:37.573Z,45.55
2022-08-07T19:47:11.822Z,45.60
2022-08-07T19:49:56.475Z,45.99
2022-08-07T19:52:27.735Z,46.06
2022-08-07T19:54:57.288Z,46.86
2022-08-07T19:58:04.557Z,47.03
2022-08-07T20:00:28.141Z,47.29
2022-08-07T20:03:01.797Z,47.26
2022-08-07T20:06:00.880Z,47.41
2022-08-07T20:08:27.641Z,48.03
2022-08-07T20:11:01.964Z,47.85
2022-08-07T20:13:37.027Z,48.61
2022-08-07T20:16:22.400Z,48.69
2022-08-07T20:19:04.366Z,49.06
2022-08-07T20:21:41.641Z,49.34
2022-08-07T20:24:19.166Z,50.10
2022-08-07T20:26:52.274Z,50.38
2022-08-07T20:29:49.186Z,50.28
2022-08-07T20:32:22.747Z,50.98
2022-08-07T20:34:55.969Z,51.00
2022-08-07T20:37:37.181Z,51.10
2022-08-07T20:40:33.454Z,51.53
2022-08-07T20:43:03.454Z,51.82
2022-08-07T20:46:26.827Z,51.66
2022-08-07T20:48:30.754Z,52.42
2022-08-07T20:51:09.736Z,52.29
2022-08-07T20:54:03.434Z,53.11
2022-08-07T20:56:29.123Z,53.00
2022-08-07T20:59:01.283Z,53.09
2022-08-07T21:01:45.842Z,53.24
2022-08-07T21:04:22.422Z,53.61
2022-08-07T21:06:55.298Z,53.98
2022-08-07T21:09:30.149Z,54.49
2022-08-07T21:12:28.429Z,54.23
2022-08-07T21:14:58.477Z,54.34
2022-08-07T21:18:20.584Z,54.58
2022-08-07T21:20:30.240Z,55.03
2022-08-07T21:23:08.170Z,55.42
2022-08-07T21:26:13.910Z,55.75
2022-08-07T21:28:51.786Z,56.15
2022-08-07T21:31:49.889Z,56.40
2022-08-07T21:34:35.581Z,56.76
2022-08-07T21:37:21.687Z,56.84
2022-08-07T21:39:59.560Z,57.13
2022-08-07T21:42:48.384Z,57.16
2022-08-07T21:46:08.049Z,57.57
2022-08-07T21:48:55.821Z,58.13
2022-08-07T21:51:27.290Z,58.35
2022-08-07T21:54:21.890Z,58.87
2022-08-07T21:57:00.142Z,58.92
2022-08-07T22:00:02.655Z,59.00
2022-08-07T22:02:27.181Z,59.02
2022-08-07T22:04:58.339Z,59.61
2022-08-07T22:07:57.781Z,59.97
2022-08-07T22:10:24.615Z,60.11
2022-08-07T22:12:59.682Z,60.21
2022-08-07T22:16:42.199Z,60.67
2022-08-07T22:18:44.795Z,60.57
2022-08-07T22:21:20.487Z,60.71
2022-08-07T22:23:57.232Z,61.09
2022-08-07T22:26:44.302Z,61.60
2022-08-07T22:29:37.726Z,61.85
2022-08-07T22:32:37.447Z,62.13
2022-08-07T22:35:11.250Z,62.40
2022-08-07T22:38:03.063Z,62.47
2022-08-07T22:40:56.775Z,62.61
2022-08-07T22:43:39.508Z,62.82
2022-08-07T22:46:42.763Z,62.77
2022-08-07T22:49:15.861Z,63.17
2022-08-07T22:52:07.943Z,63.52
2022-08-07T22:54:51.309Z,63.90
2022-08-07T22:57:44.954Z,64.29
2022-08-07T23:00:28.559Z,64.94
2022-08-07T23:03:29.685Z,65.61
2022-08-07T23:06:44.170Z,65.71
2022-08-07T23:10:04.904Z,65.81
2022-08-07T23:12:52.785Z,65.84
2022-08-07T23:16:07.027Z,66.52
2022-08-07T23:18:20.877Z,67.28
2022-08-07T23:20:58.857Z,67.27
2022-08-07T23:24:05.394Z,67.49
2022-08-07T23:26:56.312Z,67.85
2022-08-07T23:29:43.877Z,68.39
2022-08-07T23:34:23.185Z,68.11
2022-08-07T23:36:08.196Z,68.67
2022-08-07T23:38:45.797Z,68.53
2022-08-07T23:41:47.717Z,68.80
2022-08-07T23:44:41.141Z,69.03
2022-08-07T23:47:20.482Z,69.35
2022-08-07T23:50:18.050Z,70.06
2022-08-07T23:53:01.105Z,69.84
2022-08-07T23:56:02.523Z,70.71
2022-08-07T23:58:42.303Z,71.15
